Vremea acum in Galați - Romania

Vrei sa afli care e starea vremii acum in Galati - Romania? Dorim sa iti furnizam starea vremii pentru Galati - Romania. Starea vremii Galati - Romania pentru astazi.

Vremea acum in Galați

Temperatura: 2.1 °C

Este: Senin
Se simte ca: -0.1 °C
Innorat: 0 %
Precipitatii: 0 %
Presiune atmosferica: 1017 hPa
Umiditate: 87%
Vizibilitate: 6 km
Vantul bate din NW cu 7.6 km/h

Evolutia vremii in Galați pe ore

Ora: 06:00
Temperatura: 6.4°C
Sansa de precipitatii: 0%
Ora Descriere Temp Se simte Precipitatii Umiditate Vant
00:00Senin7.5°6.5°0%60%SSE 6.1 KM/H
01:00Senin7.2°7.2°0%60%WNW 2.5 KM/H
02:00Senin7.1°6.2°0%60%WNW 5.8 KM/H
03:00Senin2.1°5.4°0%87%NW 7.6 KM/H
04:00Senin6.6°4.5°0%59%NNW 10.4 KM/H
05:00Senin6.4°3.9°0%60%N 12.6 KM/H
06:006.4°3.9°0%62%N 12.6 KM/H
07:00Senin7.5°5.6°0%63%NNE 10.8 KM/H
08:00Senin10.6°0%55%NNE 13 KM/H
09:00Senin12.7°11.3°0%49%NE 14 KM/H
10:00Senin14.8°13.8°0%42%NE 14.8 KM/H
11:00Senin16.1°16.1°0%37%NE 16.2 KM/H
12:00Senin17°17°0%35%NE 15.8 KM/H
13:00Senin17.9°17.9°0%33%NE 16.2 KM/H
14:00Senin18.5°18.5°0%33%NNE 16.2 KM/H
15:00Senin19.3°19.3°0%32%NNE 16.9 KM/H
16:00Senin19.7°19.7°0%33%NNE 19.1 KM/H
17:00Senin19.7°19.7°0%34%NNE 19.8 KM/H
18:00Senin19.5°19.5°0%36%NE 18 KM/H
19:00Senin18°18°0%43%ENE 13.3 KM/H
20:00Senin14.7°14°0%50%E 11.5 KM/H
21:00Senin12.9°11.9°0%55%ESE 11.2 KM/H
22:00Senin11.8°10.8°0%58%SE 10.1 KM/H
23:00Senin11.3°10.4°0%58%SSE 9 KM/H




tutorials